Time;durP1;ratioP1;P1;durP2;ratioP2;P2;SDS_P1;SDS_P2;PMS_P1;PMS_P2;Temp;Humidity;BMP_temperature;BMP_pressure;BME280_temperature;BME280_humidity;BME280_pressure;Samples;Min_cycle;Max_cycle;Signal;HPM_P1;HPM_P2
2023/07/20 00:01:30;;;;;;;5.88;2.88;;;17.40;99.90;;;;;;5037549;28;20067;-74
2023/07/20 00:03:56;;;;;;;6.22;2.90;;;17.40;99.90;;;;;;5054019;28;20037;-75
2023/07/20 00:06:25;;;;;;;6.97;3.17;;;17.30;99.90;;;;;;5035553;28;20028;-73
2023/07/20 00:08:52;;;;;;;4.05;3.00;;;17.20;99.90;;;;;;5055773;28;20032;-74
2023/07/20 00:11:19;;;;;;;4.20;3.10;;;17.10;99.90;;;;;;5037073;28;20025;-74
2023/07/20 00:13:46;;;;;;;4.32;2.70;;;17.10;99.90;;;;;;5034189;28;20032;-74
2023/07/20 00:16:12;;;;;;;2.67;2.17;;;17.00;99.90;;;;;;5036952;28;20039;-73
2023/07/20 00:18:39;;;;;;;4.05;2.10;;;17.00;99.90;;;;;;5037341;28;20032;-73
2023/07/20 00:21:05;;;;;;;4.45;1.92;;;17.00;99.90;;;;;;5037589;28;20025;-73
2023/07/20 00:23:31;;;;;;;4.93;3.38;;;17.00;99.90;;;;;;5038856;28;20033;-74
2023/07/20 00:25:58;;;;;;;3.10;2.50;;;16.90;99.90;;;;;;5053565;28;20456;-72
2023/07/20 00:28:24;;;;;;;4.97;3.00;;;16.90;99.90;;;;;;5001706;28;20375;-73
2023/07/20 00:30:51;;;;;;;4.18;2.92;;;16.90;99.90;;;;;;5034085;28;20036;-74
2023/07/20 00:33:18;;;;;;;4.07;2.90;;;16.90;99.90;;;;;;5035080;28;20035;-74
2023/07/20 00:35:45;;;;;;;3.42;2.05;;;16.90;99.90;;;;;;5017755;28;20039;-73
2023/07/20 00:38:12;;;;;;;4.00;1.88;;;16.80;99.90;;;;;;5039200;28;20475;-74
2023/07/20 00:40:39;;;;;;;4.22;3.13;;;16.80;99.90;;;;;;5020526;28;20225;-74
2023/07/20 00:43:06;;;;;;;3.42;2.42;;;16.80;99.90;;;;;;5033552;28;20028;-74
2023/07/20 00:45:34;;;;;;;2.47;1.75;;;16.80;99.90;;;;;;5036218;28;20037;-73
2023/07/20 00:48:04;;;;;;;4.32;2.05;;;16.80;99.90;;;;;;5037501;28;20036;-72
2023/07/20 00:50:31;;;;;;;4.97;2.25;;;16.80;99.90;;;;;;5034958;28;20025;-73
2023/07/20 00:52:58;;;;;;;5.85;2.72;;;16.80;99.90;;;;;;5033226;28;20051;-73
2023/07/20 00:55:26;;;;;;;4.47;2.20;;;16.80;99.90;;;;;;5014665;28;20037;-72
2023/07/20 00:57:53;;;;;;;3.88;1.48;;;16.70;99.90;;;;;;5035227;28;20025;-73
2023/07/20 01:00:20;;;;;;;2.80;2.10;;;16.70;99.90;;;;;;5016910;28;20021;-73
2023/07/20 01:02:46;;;;;;;3.28;2.80;;;16.70;99.90;;;;;;5048464;28;20371;-73
2023/07/20 01:05:16;;;;;;;2.72;2.28;;;16.70;99.90;;;;;;5055118;28;20383;-74
2023/07/20 01:07:58;;;;;;;5.32;3.25;;;16.60;99.90;;;;;;5037416;28;20043;-73
2023/07/20 01:10:28;;;;;;;4.20;1.65;;;16.60;99.90;;;;;;5018286;28;20336;-73
2023/07/20 01:12:56;;;;;;;3.58;2.55;;;16.50;99.90;;;;;;5030795;28;20387;-73
2023/07/20 01:15:22;;;;;;;5.53;2.55;;;16.50;99.90;;;;;;5025689;28;20047;-73
2023/07/20 01:17:49;;;;;;;6.70;2.53;;;16.40;99.90;;;;;;5035726;28;20024;-73
2023/07/20 01:20:18;;;;;;;4.28;2.55;;;16.40;99.90;;;;;;5020012;28;20025;-74
2023/07/20 01:23:11;;;;;;;3.47;2.22;;;16.40;99.90;;;;;;5036300;28;20040;-73
2023/07/20 01:25:40;;;;;;;3.42;2.85;;;16.40;99.90;;;;;;5020967;28;20384;-73
2023/07/20 01:28:26;;;;;;;4.28;2.67;;;16.50;99.90;;;;;;5055334;28;20032;-73
2023/07/20 01:31:08;;;;;;;3.72;2.80;;;16.50;99.90;;;;;;5037401;28;20028;-73
2023/07/20 01:33:36;;;;;;;3.38;1.92;;;16.50;99.90;;;;;;5019644;28;20721;-73
2023/07/20 01:36:03;;;;;;;3.83;2.78;;;16.50;99.90;;;;;;5002717;28;20040;-73
2023/07/20 01:38:30;;;;;;;3.15;2.15;;;16.60;99.90;;;;;;5037372;28;20025;-73
2023/07/20 01:40:57;;;;;;;2.40;1.88;;;16.60;99.90;;;;;;5021044;28;20379;-74
2023/07/20 01:43:24;;;;;;;3.05;1.92;;;16.60;99.90;;;;;;5014426;28;20048;-73
2023/07/20 01:45:51;;;;;;;2.95;1.90;;;16.60;99.90;;;;;;5034962;28;20415;-73
2023/07/20 01:48:17;;;;;;;2.42;1.65;;;16.60;99.90;;;;;;5013027;28;20029;-73
2023/07/20 01:50:44;;;;;;;3.83;1.92;;;16.60;99.90;;;;;;5033658;28;20482;-73
2023/07/20 01:53:11;;;;;;;2.67;2.05;;;16.50;99.90;;;;;;5033262;28;20617;-74
2023/07/20 01:55:38;;;;;;;3.47;2.42;;;16.50;99.90;;;;;;5035586;28;20393;-73
2023/07/20 01:58:05;;;;;;;3.10;1.73;;;16.40;99.90;;;;;;5020601;28;20499;-73
2023/07/20 02:00:32;;;;;;;3.75;1.80;;;16.30;99.90;;;;;;5052606;28;20020;-73
2023/07/20 02:02:59;;;;;;;3.03;2.28;;;16.20;99.90;;;;;;5019293;28;20039;-73
2023/07/20 02:05:25;;;;;;;3.00;1.92;;;16.10;99.90;;;;;;5037022;28;20029;-74
2023/07/20 02:07:52;;;;;;;2.92;1.60;;;16.10;99.90;;;;;;5037668;28;20439;-73
2023/07/20 02:10:20;;;;;;;2.17;1.88;;;16.00;99.90;;;;;;5024164;28;20032;-74
2023/07/20 02:12:47;;;;;;;3.25;1.80;;;16.00;99.90;;;;;;5037410;28;20055;-73
2023/07/20 02:15:16;;;;;;;4.88;2.15;;;16.00;99.90;;;;;;5022180;28;20029;-73
2023/07/20 02:17:43;;;;;;;3.00;1.90;;;16.00;99.90;;;;;;5019101;28;20032;-73
2023/07/20 02:20:10;;;;;;;3.63;1.90;;;15.90;99.90;;;;;;5020656;28;20427;-73
2023/07/20 02:22:37;;;;;;;3.45;1.52;;;16.00;99.90;;;;;;5034240;28;20047;-73
2023/07/20 02:25:06;;;;;;;2.20;1.50;;;15.90;99.90;;;;;;5013373;28;20036;-73
2023/07/20 02:27:34;;;;;;;2.10;1.60;;;15.90;99.90;;;;;;5017876;28;20036;-73
2023/07/20 02:30:01;;;;;;;3.25;0.90;;;15.80;99.90;;;;;;5027882;28;20032;-73
2023/07/20 02:32:28;;;;;;;3.65;1.05;;;15.80;99.90;;;;;;5033991;28;20032;-73
2023/07/20 02:34:55;;;;;;;1.88;0.70;;;15.70;99.90;;;;;;5018097;28;20459;-73
2023/07/20 02:37:22;;;;;;;1.67;1.02;;;15.70;99.90;;;;;;5015115;28;20036;-73
2023/07/20 02:39:49;;;;;;;1.63;0.80;;;15.70;99.90;;;;;;5051598;28;20475;-73
2023/07/20 02:42:15;;;;;;;1.92;0.90;;;15.60;99.90;;;;;;5043826;28;20025;-73
2023/07/20 02:44:42;;;;;;;2.05;1.10;;;15.50;99.90;;;;;;5047830;28;20033;-73
2023/07/20 02:47:08;;;;;;;1.73;1.00;;;15.50;99.90;;;;;;5041734;28;20044;-74
2023/07/20 02:49:35;;;;;;;2.25;0.60;;;15.50;99.90;;;;;;5019454;28;20029;-73
2023/07/20 02:52:01;;;;;;;1.98;0.80;;;15.40;99.90;;;;;;5050429;28;22982;-73
2023/07/20 02:54:30;;;;;;;1.80;0.70;;;15.40;99.90;;;;;;5015016;28;20027;-73
2023/07/20 02:56:56;;;;;;;1.38;0.80;;;15.40;99.90;;;;;;5033356;28;20383;-73
2023/07/20 02:59:23;;;;;;;1.60;0.65;;;15.30;99.90;;;;;;5037144;28;20033;-73
2023/07/20 03:01:49;;;;;;;1.35;0.60;;;15.30;99.90;;;;;;5043280;28;20351;-74
2023/07/20 03:04:16;;;;;;;1.40;0.65;;;15.20;99.90;;;;;;5046628;28;20044;-74
2023/07/20 03:06:43;;;;;;;1.00;0.50;;;15.20;99.90;;;;;;5030527;28;20434;-73
2023/07/20 03:09:09;;;;;;;1.70;0.50;;;15.10;99.90;;;;;;5047928;28;20458;-72
2023/07/20 03:11:36;;;;;;;1.85;0.55;;;15.10;99.90;;;;;;5052972;28;20047;-73
2023/07/20 03:14:02;;;;;;;2.45;0.80;;;15.10;99.90;;;;;;5030327;28;20039;-74
2023/07/20 03:16:32;;;;;;;1.38;0.95;;;15.00;99.90;;;;;;5012463;28;20096;-73
2023/07/20 03:19:01;;;;;;;0.93;0.57;;;15.00;99.90;;;;;;5013433;28;20036;-74
2023/07/20 03:21:27;;;;;;;2.58;0.50;;;15.00;99.90;;;;;;5035630;28;20464;-73
2023/07/20 03:23:53;;;;;;;1.55;0.93;;;14.90;99.90;;;;;;5016988;28;20048;-73
2023/07/20 03:26:21;;;;;;;1.58;0.70;;;14.90;99.90;;;;;;5034158;28;20036;-73
2023/07/20 03:28:47;;;;;;;2.95;0.65;;;14.90;99.90;;;;;;5019501;28;20348;-73
2023/07/20 03:31:14;;;;;;;0.77;0.40;;;14.80;99.90;;;;;;5054445;28;20487;-73
2023/07/20 03:33:42;;;;;;;2.20;0.50;;;14.80;99.90;;;;;;5019780;28;20039;-73
2023/07/20 03:36:09;;;;;;;1.70;0.50;;;14.80;99.90;;;;;;5036535;28;20025;-73
2023/07/20 03:38:36;;;;;;;1.67;0.65;;;14.80;99.90;;;;;;5034633;28;20035;-74
2023/07/20 03:41:03;;;;;;;1.70;0.70;;;14.70;99.90;;;;;;5021823;28;20430;-73
2023/07/20 03:43:29;;;;;;;1.08;0.57;;;14.70;99.90;;;;;;5054112;28;20715;-73
2023/07/20 03:45:56;;;;;;;1.65;0.50;;;14.70;99.90;;;;;;5034643;28;20020;-73
2023/07/20 03:48:24;;;;;;;0.98;0.57;;;14.70;99.90;;;;;;5038919;28;20431;-73
2023/07/20 03:50:52;;;;;;;3.08;0.70;;;14.60;99.90;;;;;;5003967;28;20033;-73
2023/07/20 03:53:19;;;;;;;1.30;0.70;;;14.60;99.90;;;;;;5034521;28;20509;-73
2023/07/20 03:55:51;;;;;;;0.85;0.50;;;14.60;99.90;;;;;;5053389;28;20016;-73
2023/07/20 03:58:19;;;;;;;2.30;0.50;;;14.60;99.90;;;;;;5037583;28;20035;-74
2023/07/20 04:00:50;;;;;;;1.42;0.50;;;14.50;99.90;;;;;;5019926;28;20391;-73
2023/07/20 04:03:18;;;;;;;1.35;0.40;;;14.50;99.90;;;;;;5019930;28;20028;-73
2023/07/20 04:05:45;;;;;;;1.10;0.60;;;14.50;99.90;;;;;;5037752;28;20043;-73
2023/07/20 04:08:12;;;;;;;1.13;0.60;;;14.50;99.90;;;;;;5037991;28;20490;-73
2023/07/20 04:10:39;;;;;;;1.27;0.50;;;14.50;99.90;;;;;;5039746;28;20029;-73
2023/07/20 04:13:06;;;;;;;1.00;0.50;;;14.50;99.90;;;;;;5038985;28;20036;-73
2023/07/20 04:15:33;;;;;;;0.90;0.50;;;14.50;99.90;;;;;;5031403;28;20032;-73
2023/07/20 04:18:00;;;;;;;1.40;0.57;;;14.60;99.90;;;;;;5035632;28;20308;-73
2023/07/20 04:20:27;;;;;;;1.30;0.60;;;14.60;99.90;;;;;;5020116;28;20035;-73
2023/07/20 04:22:54;;;;;;;1.98;1.02;;;14.60;99.90;;;;;;5020486;28;20025;-73
2023/07/20 04:25:21;;;;;;;2.65;0.50;;;14.70;99.90;;;;;;5037260;28;20942;-73
2023/07/20 04:27:48;;;;;;;0.80;0.50;;;14.70;99.90;;;;;;5036595;28;20039;-73
2023/07/20 04:30:20;;;;;;;1.05;0.50;;;14.70;99.90;;;;;;5056647;28;20057;-73
2023/07/20 04:32:46;;;;;;;1.35;0.70;;;14.80;99.90;;;;;;5037591;28;20252;-73
2023/07/20 04:35:38;;;;;;;1.05;0.70;;;14.80;99.90;;;;;;5013663;28;20040;-73
2023/07/20 04:38:07;;;;;;;1.02;0.63;;;14.90;99.90;;;;;;5000353;28;20043;-73
2023/07/20 04:40:34;;;;;;;1.15;0.70;;;15.00;99.90;;;;;;5034623;28;20066;-73
2023/07/20 04:43:00;;;;;;;1.33;0.70;;;15.00;99.90;;;;;;5034300;28;20495;-73
2023/07/20 04:45:27;;;;;;;1.30;0.82;;;15.10;99.90;;;;;;5037609;28;20033;-73
2023/07/20 04:47:54;;;;;;;1.00;0.70;;;15.20;99.90;;;;;;5018634;28;20096;-73
2023/07/20 04:50:20;;;;;;;1.02;0.60;;;15.30;99.90;;;;;;5024915;28;20036;-72
2023/07/20 04:52:48;;;;;;;1.60;0.80;;;15.40;99.90;;;;;;5035527;28;20032;-73
2023/07/20 04:55:18;;;;;;;1.20;0.68;;;15.50;99.90;;;;;;5031981;28;20056;-73
2023/07/20 04:57:45;;;;;;;1.77;0.70;;;15.60;99.90;;;;;;5032740;28;20036;-73
2023/07/20 05:00:13;;;;;;;1.50;0.65;;;15.70;99.90;;;;;;5029515;28;20044;-73
2023/07/20 05:02:39;;;;;;;1.73;0.60;;;15.80;99.90;;;;;;5035234;28;20041;-73
2023/07/20 05:05:07;;;;;;;0.82;0.50;;;15.90;99.90;;;;;;5004115;28;20036;-73
2023/07/20 05:07:34;;;;;;;1.17;0.50;;;16.00;99.90;;;;;;5032114;28;20029;-73
2023/07/20 05:10:01;;;;;;;1.00;0.50;;;16.10;99.90;;;;;;5033657;28;20051;-74
2023/07/20 05:12:28;;;;;;;1.13;0.50;;;16.20;99.90;;;;;;5004044;28;20402;-73
2023/07/20 05:14:55;;;;;;;0.80;0.50;;;16.30;99.90;;;;;;5034619;28;20232;-73
2023/07/20 05:17:22;;;;;;;1.05;0.70;;;16.50;99.90;;;;;;5032655;28;20082;-73
2023/07/20 05:19:48;;;;;;;1.23;0.50;;;16.60;99.90;;;;;;5002838;28;20028;-73
2023/07/20 05:22:15;;;;;;;1.17;0.77;;;16.70;99.90;;;;;;5036585;28;20024;-73
2023/07/20 05:24:41;;;;;;;1.00;0.70;;;16.80;99.90;;;;;;5021278;28;20041;-73
2023/07/20 05:27:08;;;;;;;1.50;0.60;;;16.90;99.90;;;;;;4999580;28;20036;-73
2023/07/20 05:29:34;;;;;;;0.93;0.60;;;17.00;99.90;;;;;;5056209;28;20382;-73
2023/07/20 05:32:01;;;;;;;1.45;0.50;;;17.10;99.90;;;;;;5036213;28;20028;-73
2023/07/20 05:34:27;;;;;;;1.02;0.60;;;17.20;99.90;;;;;;5016143;28;20024;-73
2023/07/20 05:36:54;;;;;;;1.17;0.65;;;17.30;99.90;;;;;;5017982;28;20021;-74
2023/07/20 05:39:21;;;;;;;0.75;0.43;;;17.40;99.90;;;;;;5019107;28;20029;-73
2023/07/20 05:41:48;;;;;;;1.27;0.50;;;17.50;99.90;;;;;;5052965;28;20024;-73
2023/07/20 05:44:14;;;;;;;1.00;0.38;;;17.60;99.90;;;;;;5020433;28;20060;-73
2023/07/20 05:46:41;;;;;;;1.10;0.60;;;17.70;99.90;;;;;;5035971;28;20024;-73
2023/07/20 05:49:07;;;;;;;1.58;0.60;;;17.80;99.90;;;;;;5035745;28;20041;-73
2023/07/20 05:51:34;;;;;;;1.08;0.50;;;18.00;99.90;;;;;;5019311;28;20391;-74
2023/07/20 05:54:00;;;;;;;0.80;0.47;;;18.00;99.90;;;;;;5050564;28;20025;-73
2023/07/20 05:56:27;;;;;;;0.90;0.50;;;18.20;99.90;;;;;;5020543;28;20043;-73
2023/07/20 05:58:54;;;;;;;0.77;0.50;;;18.40;99.90;;;;;;5034885;28;20041;-73
2023/07/20 06:01:20;;;;;;;0.88;0.50;;;18.50;99.90;;;;;;5048806;28;20029;-74
2023/07/20 06:03:47;;;;;;;1.73;0.50;;;18.70;99.90;;;;;;5034098;28;20291;-73
2023/07/20 06:06:14;;;;;;;0.70;0.40;;;18.80;99.90;;;;;;5037365;28;20036;-73
2023/07/20 06:08:41;;;;;;;1.10;0.40;;;18.80;99.90;;;;;;5033121;28;20040;-73
2023/07/20 06:11:08;;;;;;;0.60;0.28;;;18.80;99.90;;;;;;5051855;28;20039;-73
2023/07/20 06:13:34;;;;;;;1.23;0.30;;;18.80;99.90;;;;;;5030192;28;20391;-74
2023/07/20 06:16:01;;;;;;;1.30;0.38;;;19.00;99.90;;;;;;5032770;28;21960;-73
2023/07/20 06:18:28;;;;;;;0.65;0.30;;;19.30;99.90;;;;;;5051221;28;20021;-74
2023/07/20 06:20:54;;;;;;;0.60;0.20;;;19.60;99.90;;;;;;5050214;28;20027;-74
2023/07/20 06:23:21;;;;;;;0.43;0.30;;;19.80;99.90;;;;;;5033925;28;20033;-74
2023/07/20 06:25:48;;;;;;;0.60;0.40;;;20.10;99.90;;;;;;5049678;28;21160;-73
2023/07/20 06:28:15;;;;;;;0.30;0.20;;;20.20;99.90;;;;;;5051180;28;20032;-74
2023/07/20 06:30:41;;;;;;;0.52;0.30;;;20.30;99.90;;;;;;5035835;28;20024;-74
2023/07/20 06:33:07;;;;;;;1.00;0.20;;;20.30;99.90;;;;;;5051763;28;20471;-74
2023/07/20 06:35:38;;;;;;;0.40;0.20;;;20.20;99.90;;;;;;5035685;28;20040;-74
2023/07/20 06:38:04;;;;;;;1.33;0.40;;;20.20;99.90;;;;;;5034263;28;20025;-73
2023/07/20 06:40:31;;;;;;;0.50;0.20;;;20.20;99.90;;;;;;5017645;28;20035;-73
2023/07/20 06:42:58;;;;;;;1.27;0.30;;;20.30;99.90;;;;;;5052073;28;20403;-74
2023/07/20 06:45:24;;;;;;;0.50;0.20;;;20.30;99.90;;;;;;5016865;28;20036;-73
2023/07/20 06:47:51;;;;;;;0.50;0.25;;;20.40;99.90;;;;;;5018801;28;20368;-73
2023/07/20 06:50:18;;;;;;;0.40;0.20;;;20.60;99.90;;;;;;5032754;28;20503;-73
2023/07/20 06:52:46;;;;;;;0.57;0.20;;;20.90;99.90;;;;;;5047965;28;20040;-73
2023/07/20 06:55:12;;;;;;;0.30;0.20;;;21.20;99.90;;;;;;5033544;28;20036;-74
2023/07/20 06:57:39;;;;;;;0.47;0.13;;;21.40;99.90;;;;;;5033443;28;20040;-74
2023/07/20 07:00:06;;;;;;;0.68;0.20;;;21.40;99.90;;;;;;5030752;28;20514;-75
2023/07/20 07:02:34;;;;;;;1.23;0.17;;;21.20;99.90;;;;;;5035683;28;20043;-75
2023/07/20 07:05:01;;;;;;;0.73;0.20;;;21.10;99.90;;;;;;5056952;28;20040;-74
2023/07/20 07:07:27;;;;;;;0.52;0.20;;;21.10;99.90;;;;;;5019737;28;20025;-75
2023/07/20 07:09:54;;;;;;;1.48;0.80;;;21.00;99.90;;;;;;5040304;28;20040;-73
2023/07/20 07:12:21;;;;;;;1.00;0.50;;;20.90;99.90;;;;;;5037500;28;20024;-74
2023/07/20 07:14:47;;;;;;;1.48;0.50;;;20.90;99.90;;;;;;5040314;28;20492;-73
2023/07/20 07:17:14;;;;;;;1.00;0.28;;;21.00;99.90;;;;;;5057935;28;20025;-73
2023/07/20 07:19:42;;;;;;;0.55;0.20;;;21.00;99.90;;;;;;5018349;28;20031;-74
2023/07/20 07:22:08;;;;;;;0.30;0.17;;;21.10;99.90;;;;;;5053781;28;20624;-73
2023/07/20 07:24:35;;;;;;;0.52;0.10;;;20.90;99.90;;;;;;5022969;28;20039;-73
2023/07/20 07:27:03;;;;;;;0.25;0.20;;;20.70;99.90;;;;;;5055044;28;20029;-73
2023/07/20 07:29:30;;;;;;;0.57;0.13;;;20.60;99.90;;;;;;5055884;28;20040;-73
2023/07/20 07:31:56;;;;;;;0.45;0.20;;;20.70;99.90;;;;;;5039344;28;20024;-73
2023/07/20 07:34:23;;;;;;;0.93;0.10;;;20.70;99.90;;;;;;5057056;28;20020;-74
2023/07/20 07:36:50;;;;;;;0.47;0.20;;;20.50;99.90;;;;;;5038349;28;20021;-73
2023/07/20 07:39:17;;;;;;;0.32;0.10;;;20.20;99.90;;;;;;5055752;28;20040;-73
2023/07/20 07:41:43;;;;;;;0.70;0.10;;;20.00;99.90;;;;;;5034991;28;20055;-73
2023/07/20 07:44:10;;;;;;;0.60;0.17;;;19.80;99.90;;;;;;5041149;28;20394;-73
2023/07/20 07:46:37;;;;;;;0.52;0.10;;;19.90;99.90;;;;;;5054610;28;20045;-73
2023/07/20 07:49:03;;;;;;;0.80;0.52;;;20.00;99.90;;;;;;5035906;28;20029;-73
2023/07/20 07:51:30;;;;;;;0.50;0.10;;;20.10;99.90;;;;;;5020991;28;20028;-73
2023/07/20 07:53:57;;;;;;;0.40;0.10;;;20.30;99.90;;;;;;5019971;28;20044;-73
2023/07/20 07:56:24;;;;;;;0.20;0.10;;;20.60;99.90;;;;;;5037152;28;20036;-73
2023/07/20 07:58:51;;;;;;;0.20;0.10;;;20.80;99.90;;;;;;5037038;28;20036;-73
2023/07/20 08:01:18;;;;;;;0.22;0.10;;;21.20;99.90;;;;;;5035861;28;20033;-73
2023/07/20 08:03:47;;;;;;;1.95;0.20;;;21.50;99.90;;;;;;5053657;28;20509;-73
2023/07/20 08:06:14;;;;;;;0.80;0.10;;;21.80;99.90;;;;;;5016453;28;20106;-73
2023/07/20 08:08:40;;;;;;;1.98;0.30;;;21.90;99.90;;;;;;5054752;28;20040;-73
2023/07/20 08:11:08;;;;;;;0.80;0.17;;;22.20;99.90;;;;;;5039245;28;20367;-73
2023/07/20 08:13:35;;;;;;;0.57;0.20;;;22.30;99.90;;;;;;5056147;28;20033;-73
2023/07/20 08:16:02;;;;;;;0.30;0.10;;;22.40;99.90;;;;;;5019526;28;20041;-73
2023/07/20 08:18:29;;;;;;;0.57;0.20;;;22.50;99.90;;;;;;5037495;28;20056;-73
2023/07/20 08:20:55;;;;;;;0.50;0.20;;;22.70;99.90;;;;;;5035739;28;20025;-73
2023/07/20 08:23:22;;;;;;;0.90;0.10;;;22.80;99.90;;;;;;5017832;28;20029;-73
2023/07/20 08:25:48;;;;;;;2.20;0.10;;;22.90;99.90;;;;;;5035644;28;20033;-73
2023/07/20 08:28:16;;;;;;;0.45;0.10;;;23.20;99.90;;;;;;5055926;28;20028;-74
2023/07/20 08:30:49;;;;;;;0.65;0.17;;;23.40;99.90;;;;;;5056581;28;20021;-73
2023/07/20 08:33:19;;;;;;;0.65;0.20;;;23.60;99.90;;;;;;5019758;28;20463;-73
2023/07/20 08:35:46;;;;;;;1.20;0.20;;;23.70;99.50;;;;;;5018955;28;20021;-73
2023/07/20 08:38:13;;;;;;;0.13;0.10;;;23.40;99.10;;;;;;5020975;28;20471;-73
2023/07/20 08:40:42;;;;;;;0.95;0.20;;;23.10;99.30;;;;;;5019796;28;20024;-73
2023/07/20 08:43:11;;;;;;;0.28;0.20;;;22.80;99.40;;;;;;5025272;28;20029;-73
2023/07/20 08:45:40;;;;;;;1.45;0.20;;;22.50;99.50;;;;;;5023268;28;20566;-74
2023/07/20 08:48:07;;;;;;;0.73;0.20;;;22.50;99.70;;;;;;5055107;28;20032;-73
2023/07/20 08:50:34;;;;;;;0.45;0.20;;;22.50;99.50;;;;;;5039077;28;20041;-73
2023/07/20 08:53:02;;;;;;;0.38;0.20;;;22.50;99.20;;;;;;5037707;28;20047;-73
2023/07/20 08:55:30;;;;;;;0.50;0.20;;;22.50;99.20;;;;;;5054247;28;20029;-73
2023/07/20 08:57:59;;;;;;;0.43;0.20;;;22.40;99.00;;;;;;5057195;28;20017;-73
2023/07/20 09:00:27;;;;;;;0.50;0.20;;;22.20;99.00;;;;;;5039463;28;20467;-73
2023/07/20 09:02:54;;;;;;;0.38;0.20;;;22.40;99.20;;;;;;5037661;28;20033;-73
2023/07/20 09:05:23;;;;;;;0.30;0.10;;;22.70;98.80;;;;;;5052418;28;20029;-74
2023/07/20 09:07:51;;;;;;;0.20;0.10;;;23.00;98.40;;;;;;5007787;28;20044;-74
2023/07/20 09:10:17;;;;;;;0.55;0.20;;;23.30;97.90;;;;;;5034923;28;20456;-73
2023/07/20 09:12:44;;;;;;;0.30;0.10;;;23.50;96.90;;;;;;5023175;28;20024;-73
2023/07/20 09:15:11;;;;;;;0.40;0.10;;;23.80;96.40;;;;;;5038622;28;20055;-73
2023/07/20 09:17:38;;;;;;;0.30;0.10;;;23.90;95.80;;;;;;5056671;28;21335;-73
2023/07/20 09:20:10;;;;;;;0.40;0.20;;;23.90;95.80;;;;;;5037575;28;20040;-73
2023/07/20 09:22:41;;;;;;;0.32;0.10;;;23.90;95.70;;;;;;5036494;28;20051;-73
2023/07/20 09:25:13;;;;;;;0.50;0.20;;;24.00;95.40;;;;;;5038313;28;20036;-73
2023/07/20 09:27:44;;;;;;;0.40;0.20;;;23.90;94.90;;;;;;5035863;28;20040;-73
2023/07/20 09:30:13;;;;;;;0.33;0.10;;;24.00;94.70;;;;;;5055887;28;20028;-73
2023/07/20 09:32:43;;;;;;;1.05;0.20;;;23.90;94.20;;;;;;5023038;28;20033;-73
2023/07/20 09:35:18;;;;;;;1.88;0.30;;;24.00;94.40;;;;;;5034945;28;20035;-73
2023/07/20 09:38:01;;;;;;;0.47;0.20;;;24.20;94.50;;;;;;5038363;28;20043;-73
2023/07/20 09:40:28;;;;;;;0.52;0.20;;;24.50;94.30;;;;;;5039385;28;20024;-73
2023/07/20 09:42:59;;;;;;;0.45;0.17;;;24.40;93.90;;;;;;5055325;28;20025;-73
2023/07/20 09:45:43;;;;;;;0.75;0.20;;;24.20;94.10;;;;;;5053576;28;20476;-74
2023/07/20 09:48:11;;;;;;;1.25;0.30;;;24.30;93.90;;;;;;5058474;28;20043;-73
2023/07/20 09:50:48;;;;;;;0.60;0.20;;;24.30;93.40;;;;;;5058060;28;20029;-73
2023/07/20 09:53:17;;;;;;;0.40;0.20;;;24.20;93.20;;;;;;5025285;28;20033;-74
2023/07/20 09:55:46;;;;;;;0.30;0.20;;;24.10;93.20;;;;;;5058072;28;20020;-73
2023/07/20 09:58:13;;;;;;;0.45;0.10;;;24.10;93.30;;;;;;5060738;28;20029;-73
2023/07/20 10:00:46;;;;;;;0.30;0.20;;;24.10;93.00;;;;;;5028515;28;20379;-73
2023/07/20 10:03:19;;;;;;;0.40;0.10;;;24.00;92.60;;;;;;5057778;28;20071;-73
2023/07/20 10:05:56;;;;;;;;;;;24.00;92.70;;;;;;5020759;28;20037;-73
2023/07/20 10:08:25;;;;;;;0.40;0.10;;;23.90;91.90;;;;;;5034212;28;20363;-73
2023/07/20 10:10:52;;;;;;;0.43;0.10;;;23.80;92.10;;;;;;5057016;28;20524;-74
2023/07/20 10:13:25;;;;;;;0.47;0.20;;;23.70;92.30;;;;;;5043866;28;20055;-73
2023/07/20 10:16:09;;;;;;;0.85;0.15;;;23.70;92.70;;;;;;5052836;28;20478;-73
2023/07/20 10:19:03;;;;;;;0.68;0.10;;;23.70;92.70;;;;;;5054269;28;20036;-73
2023/07/20 10:21:30;;;;;;;0.55;0.20;;;23.70;92.90;;;;;;5052214;28;20029;-73
2023/07/20 10:23:57;;;;;;;0.73;0.20;;;23.80;93.00;;;;;;5032871;28;20048;-73
2023/07/20 10:26:24;;;;;;;0.47;0.20;;;24.10;92.70;;;;;;5031089;28;20044;-73
2023/07/20 10:28:51;;;;;;;0.70;0.30;;;24.30;92.60;;;;;;5033310;28;20501;-73
2023/07/20 10:31:17;;;;;;;2.42;0.63;;;24.60;92.30;;;;;;5053716;28;20467;-73
2023/07/20 10:33:45;;;;;;;0.45;0.20;;;25.00;91.80;;;;;;5017302;28;20036;-73
2023/07/20 10:36:12;;;;;;;1.92;0.30;;;25.40;91.70;;;;;;5015620;28;20351;-73
2023/07/20 10:38:43;;;;;;;0.40;0.20;;;25.80;91.50;;;;;;5017197;28;20020;-73
2023/07/20 10:41:28;;;;;;;2.42;0.20;;;26.10;90.20;;;;;;5019243;28;20083;-73
2023/07/20 10:44:02;;;;;;;0.70;0.25;;;26.70;90.40;;;;;;5053799;28;20033;-73
2023/07/20 10:46:38;;;;;;;0.50;0.20;;;27.00;89.80;;;;;;5034938;28;20494;-73
2023/07/20 10:49:07;;;;;;;0.98;0.30;;;27.30;89.20;;;;;;5019701;28;20039;-73
2023/07/20 10:51:42;;;;;;;0.63;0.30;;;27.30;88.10;;;;;;5019411;28;20033;-73
2023/07/20 10:54:29;;;;;;;1.05;0.30;;;27.20;87.40;;;;;;5017902;28;20040;-73
2023/07/20 10:56:57;;;;;;;1.63;0.20;;;27.30;85.90;;;;;;5032721;28;20472;-73
2023/07/20 10:59:24;;;;;;;0.82;0.30;;;27.60;85.40;;;;;;5035921;28;20032;-73
2023/07/20 11:01:55;;;;;;;0.75;0.25;;;28.00;83.80;;;;;;5035913;28;20040;-73
2023/07/20 11:04:42;;;;;;;0.80;0.20;;;28.10;83.50;;;;;;5019113;28;20376;-73
2023/07/20 11:07:10;;;;;;;1.58;0.20;;;28.60;83.60;;;;;;5047167;28;20041;-73
2023/07/20 11:09:38;;;;;;;0.60;0.20;;;28.60;82.10;;;;;;5034861;28;20380;-76
2023/07/20 11:12:12;;;;;;;2.05;0.40;;;28.50;81.00;;;;;;5036992;28;20698;-74
2023/07/20 11:14:56;;;;;;;2.47;0.60;;;28.30;81.00;;;;;;5034580;28;20386;-74
2023/07/20 11:17:31;;;;;;;0.90;0.40;;;28.20;80.80;;;;;;5020839;28;20406;-73
2023/07/20 11:20:03;;;;;;;0.70;0.22;;;28.00;78.70;;;;;;5033318;28;20029;-73
2023/07/20 11:22:31;;;;;;;0.70;0.20;;;27.90;78.60;;;;;;5052851;28;20044;-75
2023/07/20 11:24:58;;;;;;;0.50;0.35;;;27.80;79.10;;;;;;5031384;28;20036;-75
2023/07/20 11:27:24;;;;;;;0.60;0.30;;;27.70;78.30;;;;;;5033785;28;20055;-76
2023/07/20 11:29:51;;;;;;;0.88;0.30;;;27.50;78.70;;;;;;5018864;28;20395;-74
2023/07/20 11:32:24;;;;;;;0.93;0.30;;;27.40;79.20;;;;;;5053413;28;20025;-74
2023/07/20 11:34:51;;;;;;;1.33;0.30;;;27.30;79.70;;;;;;5033333;28;20426;-74
2023/07/20 11:37:18;;;;;;;0.50;0.30;;;27.00;79.50;;;;;;5035744;28;20387;-74
2023/07/20 11:39:45;;;;;;;2.35;0.40;;;26.80;79.40;;;;;;5055124;28;20478;-75
2023/07/20 11:42:12;;;;;;;1.52;0.60;;;26.60;79.50;;;;;;5018493;28;20040;-74
2023/07/20 11:44:39;;;;;;;0.60;0.32;;;26.40;80.10;;;;;;5036911;28;20494;-73
2023/07/20 11:47:11;;;;;;;0.47;0.20;;;26.10;79.70;;;;;;5031428;28;20036;-74
2023/07/20 11:49:44;;;;;;;1.63;0.50;;;25.90;80.10;;;;;;5053131;28;20443;-74
2023/07/20 11:52:13;;;;;;;0.95;0.30;;;25.70;80.40;;;;;;5055965;28;21019;-75
2023/07/20 11:54:41;;;;;;;0.88;0.40;;;25.50;81.10;;;;;;5019688;28;20021;-72
2023/07/20 11:57:15;;;;;;;0.80;0.25;;;25.30;81.60;;;;;;5019562;28;20044;-74
2023/07/20 12:00:00;;;;;;;0.52;0.20;;;25.10;82.10;;;;;;5036397;28;20410;-74
2023/07/20 12:02:28;;;;;;;1.55;0.20;;;25.00;82.60;;;;;;5021694;28;20041;-75
2023/07/20 12:04:57;;;;;;;0.60;0.30;;;24.90;83.20;;;;;;5054127;28;20131;-75
2023/07/20 12:07:28;;;;;;;1.08;0.30;;;24.80;83.30;;;;;;5035053;28;20041;-73
2023/07/20 12:10:11;;;;;;;0.70;0.30;;;25.00;84.10;;;;;;5034983;28;20040;-73
2023/07/20 12:12:43;;;;;;;0.80;0.30;;;25.90;84.70;;;;;;5053363;28;20055;-74
2023/07/20 12:15:24;;;;;;;1.25;0.30;;;27.00;82.10;;;;;;5005116;28;20032;-74
2023/07/20 12:17:53;;;;;;;1.00;0.30;;;28.20;80.80;;;;;;5055251;28;20025;-74
2023/07/20 12:20:30;;;;;;;0.45;0.22;;;29.30;78.90;;;;;;5037975;28;20487;-74
2023/07/20 12:23:19;;;;;;;1.27;0.30;;;29.40;76.60;;;;;;5056655;28;20041;-72
2023/07/20 12:25:47;;;;;;;0.75;0.20;;;28.90;76.20;;;;;;5035784;28;20036;-75
2023/07/20 12:28:15;;;;;;;0.30;0.20;;;28.20;76.70;;;;;;5055162;28;20063;-73
2023/07/20 12:30:44;;;;;;;2.67;2.30;;;27.70;77.30;;;;;;5020630;28;20024;-73
2023/07/20 12:33:11;;;;;;;1.17;0.50;;;27.80;78.40;;;;;;5039313;28;20041;-73
2023/07/20 12:35:38;;;;;;;0.70;0.30;;;28.60;79.00;;;;;;5021441;28;20032;-72
2023/07/20 12:38:05;;;;;;;2.67;0.40;;;30.00;77.00;;;;;;5053878;28;20039;-73
2023/07/20 12:40:33;;;;;;;2.63;0.40;;;31.20;74.80;;;;;;5053166;28;20628;-73
2023/07/20 12:43:01;;;;;;;1.40;0.38;;;32.20;72.40;;;;;;5051264;28;20510;-73
2023/07/20 12:45:27;;;;;;;1.13;0.30;;;33.10;69.10;;;;;;5016120;28;20028;-72
2023/07/20 12:47:54;;;;;;;0.50;0.20;;;33.70;67.20;;;;;;5051923;28;20024;-74
2023/07/20 12:50:21;;;;;;;0.77;0.30;;;34.20;65.80;;;;;;5036134;28;20395;-73
2023/07/20 12:52:47;;;;;;;0.52;0.20;;;34.90;63.80;;;;;;5032725;28;20032;-73
2023/07/20 12:55:14;;;;;;;0.70;0.20;;;35.30;61.60;;;;;;5021823;28;20396;-72